Sunday, August 19, 2018, 12:27 AM GMT
Back to Local

CYSJ, Saint John, N. B.

Location: , , Canada Lat: 45.333
Local Time: 12:27 AM GMT ( 0:27 GMT) Lon: -65.883
Time Zone: GMT Elev: 337 ft

Show me the last for .
Show Decoded

2018-08-19 00:00 METAR CYSJ 190000Z 36013G19KT 15SM BKN011 17/15 A2983 RMK SC7 SLP104 DENSITY ALT
                 800FT =
2018-08-18 23:00 METAR CYSJ 182300Z 02011G20KT 15SM SCT008 OVC013 16/16 A2982 RMK SF4SC4 SLP099
                 DENSITY ALT 800FT =
2018-08-18 22:00 METAR CYSJ 182200Z 01013G22KT 4SM -SHRA BR BKN008 OVC012 17/16 A2980 RMK SF6SC2
                 SLP094 DENSITY ALT 800FT =
2018-08-18 21:07 METAR CYSJ 182107Z 02012G17KT 4SM -SHRA BR SCT008 OVC012 17/16 A2980 RMK SF4SC4
                 SLP093 DENSITY ALT 800FT =
2018-08-18 21:00 METAR CYSJ 182100Z 01014KT 4SM -SHRA BR OVC009 17/16 A2980 RMK SF8 SLP094
                 DENSITY ALT 800FT =
2018-08-18 20:00 METAR CYSJ 182000Z 01010G17KT 4SM -SHRA BR OVC008 16/16 A2979 RMK SF8 SLP089
                 DENSITY ALT 800FT =
2018-08-18 19:00 METAR CYSJ 181900Z 01010G17KT 3SM -SHRA BR OVC008 17/16 A2977 RMK SF8 SLP083
                 DENSITY ALT 800FT =
2018-08-18 18:38 METAR CYSJ 181838Z 01010KT 3SM -SHRA BR OVC008 17/16 A2976 RMK SF8 SLP080
                 DENSITY ALT 900FT =
2018-08-18 18:00 METAR CYSJ 181800Z 02011KT 3SM -SHRA BR OVC006 17/17 A2975 RMK SF8 SLP077
                 DENSITY ALT 900FT =
2018-08-18 17:46 METAR CYSJ 181746Z 02013G19KT 3SM -SHRA BR BKN006 OVC120 17/16 A2975 RMK SF7AC1
                 SLP076 DENSITY ALT 900FT =
2018-08-18 17:41 METAR CYSJ 181741Z 02013KT 3SM BR BKN005 OVC130 17/16 A2975 RMK SF7AC1 SLP076
                 DENSITY ALT 900FT =
2018-08-18 17:00 METAR CYSJ 181700Z 01009KT 2 1/2SM -SHRA BR OVC004 18/18 A2974 RMK SF8 SLP075
                 DENSITY ALT 1000FT =
2018-08-18 16:38 METAR CYSJ 181638Z 33007KT 2SM -SHRA BR OVC004 18/18 A2976 RMK SF8 SLP080
                 DENSITY ALT 1000FT =
2018-08-18 16:36 METAR CYSJ 181636Z 32008KT 2SM BR OVC003 18/18 A2977 RMK SF8 SLP082 DENSITY ALT
                 1000FT =
2018-08-18 16:00 METAR CYSJ 181600Z 23006KT 1 1/2SM BR OVC003 17/17 A2976 RMK SF8 SLP081 DENSITY
                 ALT 900FT =
2018-08-18 15:52 METAR CYSJ 181552Z 21006KT 1 1/2SM R23/5500VP6000FT/U BR OVC003 17/17 A2977 RMK
                 SF8 SLP082 DENSITY ALT 900FT =
2018-08-18 15:27 METAR CYSJ 181527Z 26006KT 220V290 3/4SM R23/3000V4500FT/U -SHRA OVC002 17/17
                 A2977 RMK SF8 SLP085 DENSITY ALT 900FT =
2018-08-18 15:19 METAR CYSJ 181519Z 24005KT 200V270 1/2SM R23/3000FT/N FG OVC002 17/17 A2977 RMK
                 FG4SF4 SLP085 DENSITY ALT 900FT =
2018-08-18 15:00 METAR CYSJ 181500Z 21007KT 1/8SM R23/2600FT/N FG VV001 17/17 A2977 RMK FG8
                 SLP085 DENSITY ALT 900FT =
2018-08-18 14:23 METAR CYSJ 181423Z 23006KT 190V260 1/4SM R23/3000FT/U FG VV001 18/18 A2978 RMK
                 FG8 SLP087 DENSITY ALT 1000FT =
2018-08-18 14:00 METAR CYSJ 181400Z 20010KT 160V230 1/8SM R23/2400V5500FT/D FG VV001 18/18 A2978
                 RMK FG8 SLP087 DENSITY ALT 1000FT =
2018-08-18 13:55 METAR CYSJ 181355Z 19006KT 1/4SM R23/3500VP6000FT/D FG VV001 18/18 A2978 RMK FG8
                 SLP088 DENSITY ALT 1000FT =
2018-08-18 13:43 METAR CYSJ 181343Z 18004KT 1/2SM R23/P6000FT/N FG VV001 17/17 A2979 RMK FG8
                 SLP089 DENSITY ALT 900FT =
2018-08-18 13:40 METAR CYSJ 181340Z 19005KT 3/4SM R23/P6000FT/N -SHRA BR VV001 17/17 A2978 RMK
                 FG8 SLP088 DENSITY ALT 900FT =
2018-08-18 13:27 METAR CYSJ 181327Z 17008KT 2SM -SHRA BR OVC002 17/17 A2978 RMK SF8 SLP087
                 DENSITY ALT 900FT =
2018-08-18 13:13 METAR CYSJ 181313Z 17007KT 2SM -SHRA BR OVC004 17/17 A2978 RMK SF8 SLP088
                 DENSITY ALT 800FT =
2018-08-18 13:03 METAR CYSJ 181303Z 15009G17KT 2SM SHRA BR OVC002 16/16 A2979 RMK SF8 SLP089
                 DENSITY ALT 800FT =
2018-08-18 13:00 METAR CYSJ 181300Z 13009G17KT 2SM -SHRA BR OVC002 16/16 A2978 RMK SF8 SLP088
                 DENSITY ALT 800FT =
2018-08-18 12:52 METAR CYSJ 181252Z 13012G17KT 3SM -SHRA BR OVC003 16/16 A2978 RMK SF8 SLP088
                 DENSITY ALT 700FT =
2018-08-18 12:42 METAR CYSJ 181242Z 14009G15KT 2SM +SHRA BR BKN004 OVC010 16/16 A2979 RMK SF7SC1
                 SLP091 DENSITY ALT 700FT =
2018-08-18 12:40 METAR CYSJ 181240Z 14012KT 2SM -SHRA BR BKN004 OVC010 16/16 A2979 RMK SF7SC1
                 SLP090 DENSITY ALT 700FT =
2018-08-18 12:34 METAR CYSJ 181234Z 14010G17KT 2SM +SHRA BR BKN004 16/16 A2980 RMK SF6 SLP092
                 DENSITY ALT 700FT =
2018-08-18 12:25 METAR CYSJ 181225Z 13011G18KT 2SM SHRA BR OVC004 16/16 A2979 RMK SF8 SLP091
                 DENSITY ALT 700FT =
2018-08-18 12:22 METAR CYSJ 181222Z 14011G20KT 4SM -SHRA BR OVC004 16/16 A2979 RMK SF8 SLP090
                 DENSITY ALT 700FT =
2018-08-18 12:00 METAR CYSJ 181200Z 14012G17KT 3SM -SHRA BR OVC007 16/15 A2980 RMK SF8 PRESFR
                 SLP093 DENSITY ALT 700FT =
2018-08-18 11:57 METAR CYSJ 181157Z 13010G17KT 3SM -SHRA BR OVC007 16/15 A2980 RMK SF8 PRESFR
                 SLP093 DENSITY ALT 700FT =
2018-08-18 11:44 METAR CYSJ 181144Z 15009G17KT 2 1/2SM -SHRA BR OVC007 16/15 A2981 RMK SF8 SLP098
                 DENSITY ALT 700FT =
2018-08-18 11:28 METAR CYSJ 181128Z 17007G20KT 100V190 2SM SHRA BR OVC005 16/16 A2981 RMK SF8
                 SLP096 DENSITY ALT 700FT =
2018-08-18 11:26 METAR CYSJ 181126Z 15009G20KT 100V190 2SM -SHRA BR OVC005 16/16 A2981 RMK SF8
                 SLP097 DENSITY ALT 700FT =
2018-08-18 11:00 METAR CYSJ 181100Z 13010G17KT 2SM -RA BR OVC007 16/15 A2982 RMK SF8 SLP101
                 DENSITY ALT 700FT =
2018-08-18 10:30 METAR CYSJ 181030Z 15010KT 2SM -RA BR OVC007 16/15 A2983 RMK SF8 SLP104 DENSITY
                 ALT 700FT =
2018-08-18 10:00 METAR CYSJ 181000Z 14004KT 100V180 10SM -RA SCT003 OVC011 15/15 A2984 RMK SF3SC5
                 CB EMBD SLP108 DENSITY ALT 600FT =
2018-08-18 09:53 METAR CYSJ 180953Z 14004KT 100V170 10SM -TSRA SCT003 OVC011 15/15 A2985 RMK
                 SF3SC5 SLP110 DENSITY ALT 600FT =
2018-08-18 09:17 METAR CYSJ 180917Z VRB07KT 10SM TSRA SCT003 OVC014CB 16/14 A2987 RMK SF3CB5
                 SLP116 DENSITY ALT 600FT =
2018-08-18 09:09 METAR CYSJ 180909Z 11003KT 060V150 10SM RA SCT003 OVC014 16/14 A2986 RMK SF3SC5
                 SLP113 DENSITY ALT 600FT =
2018-08-18 09:00 METAR CYSJ 180900Z 08005KT 020V110 10SM -RA SCT003 OVC016 15/14 A2986 RMK SF3SC5
                 SLP114 DENSITY ALT 600FT =
2018-08-18 08:00 METAR CYSJ 180800Z VRB02KT 10SM -RA SCT003 OVC037 15/14 A2989 RMK SF3SC5 SLP125
                 DENSITY ALT 500FT =
2018-08-18 07:31 METAR CYSJ 180731Z 16010KT 10SM -RA SCT003 OVC038 15/14 A2989 RMK SF3SC5 SLP125
                 DENSITY ALT 600FT =
2018-08-18 07:00 METAR CYSJ 180700Z 15009KT 6SM BR SCT004 OVC037 16/14 A2991 RMK SF4SC4 SLP130
                 DENSITY ALT 600FT =
2018-08-18 06:00 METAR CYSJ 180600Z 15004KT 3SM BR BKN003 OVC041 16/15 A2994 RMK SF5SC3 SLP141
                 DENSITY ALT 600FT =
2018-08-18 05:00 METAR CYSJ 180500Z 17004KT 3SM BR BKN003 OVC043 15/15 A2997 RMK SC5SC3 SLP151
                 DENSITY ALT 500FT =
2018-08-18 04:37 METAR CYSJ 180437Z 17005KT 3SM BR BKN003 OVC059 15/15 A2998 RMK SC5SC3 SLP154
                 DENSITY ALT 500FT =
2018-08-18 04:31 METAR CYSJ 180431Z 18006KT 1 1/2SM BR BKN003 BKN059 OVC130 15/15 A2998 RMK
                 SC5SC2AC1 SLP154 DENSITY ALT 500FT =
2018-08-18 04:00 METAR CYSJ 180400Z 17008KT 1SM R05/P6000FT/N BR OVC003 15/15 A2999 RMK SC8
                 SLP157 DENSITY ALT 400FT =
2018-08-18 03:00 METAR CYSJ 180300Z 19005KT 1SM R05/5000VP6000FT/U BR OVC002 15/15 A3000 RMK SC8
                 SLP163 DENSITY ALT 400FT =
2018-08-18 02:40 METAR CYSJ 180240Z 21006KT 1SM R23/P6000FT/U BR OVC002 15/15 A3001 RMK SC8
                 SLP164 DENSITY ALT 400FT =
2018-08-18 02:17 METAR CYSJ 180217Z 20005KT 3/4SM R23/P6000FT/N BR OVC002 15/15 A3001 RMK SC8
                 SLP165 DENSITY ALT 400FT =
2018-08-18 02:00 METAR CYSJ 180200Z 21005KT 1SM R23/P6000FT/N BR OVC002 15/15 A3002 RMK SC8
                 SLP167 DENSITY ALT 400FT =
2018-08-18 01:47 METAR CYSJ 180147Z 20005KT 170V230 2SM BR OVC002 15/15 A3002 RMK SC8 SLP168
                 DENSITY ALT 400FT =
2018-08-18 01:27 METAR CYSJ 180127Z 20004KT 10SM SCT002 BKN310 14/14 A3002 RMK SF4CI3 SLP168 =
2018-08-18 01:00 METAR CYSJ 180100Z 20003KT 15SM FEW032 BKN310 15/14 A3003 RMK SC2CI4 SLP171 =

Support USWX by starting your Amazon purchase here.